sensor_id;sensor_type;location;lat;lon;timestamp;P1;durP1;ratioP1;P2;durP2;ratioP2
51489;SDS011;57752;53.574;9.736;2023-06-10T00:02:58;21.63;;;7.03;;
51489;SDS011;57752;53.574;9.736;2023-06-10T00:07:59;15.68;;;5.85;;
51489;SDS011;57752;53.574;9.736;2023-06-10T00:12:59;21.10;;;7.78;;
51489;SDS011;57752;53.574;9.736;2023-06-10T00:18:01;18.75;;;6.90;;
51489;SDS011;57752;53.574;9.736;2023-06-10T00:23:02;21.98;;;7.97;;
51489;SDS011;57752;53.574;9.736;2023-06-10T00:28:02;18.23;;;6.93;;
51489;SDS011;57752;53.574;9.736;2023-06-10T00:33:02;20.77;;;7.53;;
51489;SDS011;57752;53.574;9.736;2023-06-10T00:38:03;24.10;;;7.20;;
51489;SDS011;57752;53.574;9.736;2023-06-10T00:43:03;16.88;;;6.45;;
51489;SDS011;57752;53.574;9.736;2023-06-10T00:48:04;18.80;;;6.50;;
51489;SDS011;57752;53.574;9.736;2023-06-10T00:53:04;16.38;;;6.10;;
51489;SDS011;57752;53.574;9.736;2023-06-10T00:58:05;15.48;;;5.50;;
51489;SDS011;57752;53.574;9.736;2023-06-10T01:03:05;15.27;;;5.75;;
51489;SDS011;57752;53.574;9.736;2023-06-10T01:08:14;18.20;;;5.60;;
51489;SDS011;57752;53.574;9.736;2023-06-10T01:13:20;17.02;;;4.93;;
51489;SDS011;57752;53.574;9.736;2023-06-10T01:18:29;16.02;;;5.82;;
51489;SDS011;57752;53.574;9.736;2023-06-10T01:23:30;15.90;;;5.18;;
51489;SDS011;57752;53.574;9.736;2023-06-10T01:28:52;15.95;;;5.72;;
51489;SDS011;57752;53.574;9.736;2023-06-10T01:38:55;13.75;;;5.15;;
51489;SDS011;57752;53.574;9.736;2023-06-10T01:43:55;14.85;;;5.53;;
51489;SDS011;57752;53.574;9.736;2023-06-10T01:48:56;13.90;;;5.00;;
51489;SDS011;57752;53.574;9.736;2023-06-10T01:53:56;16.80;;;5.70;;
51489;SDS011;57752;53.574;9.736;2023-06-10T01:58:56;18.45;;;5.03;;
51489;SDS011;57752;53.574;9.736;2023-06-10T02:03:59;15.57;;;4.85;;
51489;SDS011;57752;53.574;9.736;2023-06-10T02:08:59;14.55;;;4.97;;
51489;SDS011;57752;53.574;9.736;2023-06-10T02:13:59;14.55;;;4.75;;
51489;SDS011;57752;53.574;9.736;2023-06-10T02:19:00;12.97;;;5.00;;
51489;SDS011;57752;53.574;9.736;2023-06-10T02:24:00;12.68;;;4.45;;
51489;SDS011;57752;53.574;9.736;2023-06-10T02:29:01;17.27;;;4.57;;
51489;SDS011;57752;53.574;9.736;2023-06-10T02:34:01;13.00;;;4.72;;
51489;SDS011;57752;53.574;9.736;2023-06-10T02:39:03;16.33;;;4.43;;
51489;SDS011;57752;53.574;9.736;2023-06-10T02:44:04;12.27;;;4.38;;
51489;SDS011;57752;53.574;9.736;2023-06-10T02:49:04;12.60;;;4.27;;
51489;SDS011;57752;53.574;9.736;2023-06-10T02:54:04;12.23;;;4.53;;
51489;SDS011;57752;53.574;9.736;2023-06-10T02:59:05;13.45;;;4.65;;
51489;SDS011;57752;53.574;9.736;2023-06-10T03:04:07;13.75;;;4.05;;
51489;SDS011;57752;53.574;9.736;2023-06-10T03:09:07;12.20;;;3.78;;
51489;SDS011;57752;53.574;9.736;2023-06-10T03:14:07;13.10;;;3.78;;
51489;SDS011;57752;53.574;9.736;2023-06-10T03:19:08;13.48;;;4.22;;
51489;SDS011;57752;53.574;9.736;2023-06-10T03:24:08;11.63;;;3.97;;
51489;SDS011;57752;53.574;9.736;2023-06-10T03:29:08;15.38;;;4.25;;
51489;SDS011;57752;53.574;9.736;2023-06-10T03:34:09;12.05;;;4.00;;
51489;SDS011;57752;53.574;9.736;2023-06-10T03:39:10;16.33;;;4.25;;
51489;SDS011;57752;53.574;9.736;2023-06-10T03:44:10;17.90;;;4.65;;
51489;SDS011;57752;53.574;9.736;2023-06-10T03:49:10;14.95;;;4.28;;
51489;SDS011;57752;53.574;9.736;2023-06-10T03:54:11;12.77;;;3.97;;
51489;SDS011;57752;53.574;9.736;2023-06-10T03:59:11;15.40;;;4.30;;
51489;SDS011;57752;53.574;9.736;2023-06-10T04:04:13;13.30;;;4.00;;
51489;SDS011;57752;53.574;9.736;2023-06-10T04:09:16;13.10;;;4.00;;
51489;SDS011;57752;53.574;9.736;2023-06-10T04:14:17;13.07;;;4.32;;
51489;SDS011;57752;53.574;9.736;2023-06-10T04:19:17;12.98;;;4.15;;
51489;SDS011;57752;53.574;9.736;2023-06-10T04:24:17;12.32;;;3.60;;
51489;SDS011;57752;53.574;9.736;2023-06-10T04:29:17;12.70;;;4.00;;
51489;SDS011;57752;53.574;9.736;2023-06-10T04:34:18;14.90;;;4.05;;
51489;SDS011;57752;53.574;9.736;2023-06-10T04:39:18;14.50;;;3.85;;
51489;SDS011;57752;53.574;9.736;2023-06-10T04:44:19;11.55;;;3.13;;
51489;SDS011;57752;53.574;9.736;2023-06-10T04:49:20;13.00;;;3.40;;
51489;SDS011;57752;53.574;9.736;2023-06-10T04:54:20;12.93;;;3.40;;
51489;SDS011;57752;53.574;9.736;2023-06-10T04:59:20;13.03;;;3.23;;
51489;SDS011;57752;53.574;9.736;2023-06-10T05:04:21;12.93;;;3.30;;
51489;SDS011;57752;53.574;9.736;2023-06-10T05:09:21;12.97;;;3.37;;
51489;SDS011;57752;53.574;9.736;2023-06-10T05:14:21;15.17;;;3.47;;
51489;SDS011;57752;53.574;9.736;2023-06-10T05:19:21;12.27;;;3.13;;
51489;SDS011;57752;53.574;9.736;2023-06-10T05:24:22;11.70;;;3.35;;
51489;SDS011;57752;53.574;9.736;2023-06-10T05:29:23;12.45;;;3.38;;
51489;SDS011;57752;53.574;9.736;2023-06-10T05:34:23;11.65;;;3.10;;
51489;SDS011;57752;53.574;9.736;2023-06-10T05:39:23;13.73;;;3.25;;
51489;SDS011;57752;53.574;9.736;2023-06-10T05:44:24;12.18;;;3.33;;
51489;SDS011;57752;53.574;9.736;2023-06-10T05:49:24;10.30;;;3.20;;
51489;SDS011;57752;53.574;9.736;2023-06-10T05:54:25;11.52;;;3.20;;
51489;SDS011;57752;53.574;9.736;2023-06-10T05:59:26;11.63;;;3.13;;
51489;SDS011;57752;53.574;9.736;2023-06-10T06:04:26;10.53;;;2.63;;
51489;SDS011;57752;53.574;9.736;2023-06-10T06:09:27;16.77;;;3.30;;
51489;SDS011;57752;53.574;9.736;2023-06-10T06:14:30;12.35;;;3.05;;
51489;SDS011;57752;53.574;9.736;2023-06-10T06:19:31;13.25;;;2.97;;
51489;SDS011;57752;53.574;9.736;2023-06-10T06:24:31;14.50;;;3.60;;
51489;SDS011;57752;53.574;9.736;2023-06-10T06:29:31;13.25;;;3.20;;
51489;SDS011;57752;53.574;9.736;2023-06-10T06:34:31;11.65;;;3.30;;
51489;SDS011;57752;53.574;9.736;2023-06-10T06:39:33;12.30;;;3.43;;
51489;SDS011;57752;53.574;9.736;2023-06-10T06:44:33;10.45;;;3.05;;
51489;SDS011;57752;53.574;9.736;2023-06-10T06:49:33;8.73;;;2.70;;
51489;SDS011;57752;53.574;9.736;2023-06-10T06:54:34;10.88;;;3.28;;
51489;SDS011;57752;53.574;9.736;2023-06-10T06:59:34;11.43;;;3.40;;
51489;SDS011;57752;53.574;9.736;2023-06-10T07:04:34;13.52;;;3.20;;
51489;SDS011;57752;53.574;9.736;2023-06-10T07:09:35;15.43;;;3.42;;
51489;SDS011;57752;53.574;9.736;2023-06-10T07:14:35;10.15;;;2.83;;
51489;SDS011;57752;53.574;9.736;2023-06-10T07:19:35;12.32;;;3.60;;
51489;SDS011;57752;53.574;9.736;2023-06-10T07:24:36;12.37;;;2.93;;
51489;SDS011;57752;53.574;9.736;2023-06-10T07:29:36;14.20;;;3.50;;
51489;SDS011;57752;53.574;9.736;2023-06-10T07:34:36;12.67;;;3.50;;
51489;SDS011;57752;53.574;9.736;2023-06-10T07:39:36;13.77;;;3.38;;
51489;SDS011;57752;53.574;9.736;2023-06-10T07:44:37;12.98;;;3.10;;
51489;SDS011;57752;53.574;9.736;2023-06-10T07:49:37;14.00;;;3.28;;
51489;SDS011;57752;53.574;9.736;2023-06-10T07:54:37;14.07;;;3.60;;
51489;SDS011;57752;53.574;9.736;2023-06-10T07:59:38;13.10;;;3.72;;
51489;SDS011;57752;53.574;9.736;2023-06-10T08:04:38;11.98;;;3.67;;
51489;SDS011;57752;53.574;9.736;2023-06-10T08:09:38;15.32;;;4.00;;
51489;SDS011;57752;53.574;9.736;2023-06-10T08:14:39;11.93;;;3.60;;
51489;SDS011;57752;53.574;9.736;2023-06-10T08:19:39;11.57;;;3.43;;
51489;SDS011;57752;53.574;9.736;2023-06-10T08:24:39;13.00;;;3.80;;
51489;SDS011;57752;53.574;9.736;2023-06-10T08:29:40;14.68;;;3.88;;
51489;SDS011;57752;53.574;9.736;2023-06-10T08:34:40;12.57;;;3.43;;
51489;SDS011;57752;53.574;9.736;2023-06-10T08:39:40;11.33;;;3.30;;
51489;SDS011;57752;53.574;9.736;2023-06-10T08:44:40;12.73;;;3.45;;
51489;SDS011;57752;53.574;9.736;2023-06-10T08:49:45;13.40;;;3.77;;
51489;SDS011;57752;53.574;9.736;2023-06-10T08:54:54;14.23;;;3.75;;
51489;SDS011;57752;53.574;9.736;2023-06-10T08:59:57;12.48;;;3.85;;
51489;SDS011;57752;53.574;9.736;2023-06-10T09:04:57;12.10;;;3.53;;
51489;SDS011;57752;53.574;9.736;2023-06-10T09:09:58;14.90;;;3.63;;
51489;SDS011;57752;53.574;9.736;2023-06-10T09:14:59;12.75;;;4.25;;
51489;SDS011;57752;53.574;9.736;2023-06-10T09:19:59;14.25;;;4.10;;
51489;SDS011;57752;53.574;9.736;2023-06-10T09:25:07;13.38;;;3.92;;
51489;SDS011;57752;53.574;9.736;2023-06-10T09:30:20;12.98;;;4.05;;
51489;SDS011;57752;53.574;9.736;2023-06-10T09:35:25;14.52;;;4.10;;
51489;SDS011;57752;53.574;9.736;2023-06-10T09:40:27;11.43;;;3.70;;
51489;SDS011;57752;53.574;9.736;2023-06-10T09:45:31;11.87;;;3.77;;
51489;SDS011;57752;53.574;9.736;2023-06-10T09:50:33;15.57;;;4.30;;
51489;SDS011;57752;53.574;9.736;2023-06-10T09:55:33;12.57;;;4.20;;
51489;SDS011;57752;53.574;9.736;2023-06-10T10:00:35;11.75;;;3.92;;
51489;SDS011;57752;53.574;9.736;2023-06-10T10:05:36;14.63;;;4.45;;
51489;SDS011;57752;53.574;9.736;2023-06-10T10:10:36;13.10;;;4.05;;
51489;SDS011;57752;53.574;9.736;2023-06-10T10:15:42;12.65;;;3.97;;
51489;SDS011;57752;53.574;9.736;2023-06-10T10:20:46;16.00;;;4.40;;
51489;SDS011;57752;53.574;9.736;2023-06-10T10:25:49;11.48;;;3.88;;
51489;SDS011;57752;53.574;9.736;2023-06-10T10:30:52;14.68;;;4.47;;
51489;SDS011;57752;53.574;9.736;2023-06-10T10:35:53;18.63;;;4.50;;
51489;SDS011;57752;53.574;9.736;2023-06-10T10:40:53;14.40;;;4.33;;
51489;SDS011;57752;53.574;9.736;2023-06-10T10:46:03;13.13;;;4.22;;
51489;SDS011;57752;53.574;9.736;2023-06-10T10:51:10;11.82;;;4.00;;
51489;SDS011;57752;53.574;9.736;2023-06-10T10:56:14;11.77;;;4.07;;
51489;SDS011;57752;53.574;9.736;2023-06-10T11:01:17;14.73;;;4.53;;
51489;SDS011;57752;53.574;9.736;2023-06-10T11:06:18;14.13;;;4.60;;
51489;SDS011;57752;53.574;9.736;2023-06-10T11:11:25;13.70;;;4.47;;
51489;SDS011;57752;53.574;9.736;2023-06-10T11:16:27;16.73;;;4.55;;
51489;SDS011;57752;53.574;9.736;2023-06-10T11:21:28;12.75;;;3.97;;
51489;SDS011;57752;53.574;9.736;2023-06-10T11:31:32;13.82;;;4.28;;
51489;SDS011;57752;53.574;9.736;2023-06-10T11:36:42;14.50;;;4.68;;
51489;SDS011;57752;53.574;9.736;2023-06-10T11:41:45;11.75;;;4.63;;
51489;SDS011;57752;53.574;9.736;2023-06-10T11:46:45;12.87;;;4.80;;
51489;SDS011;57752;53.574;9.736;2023-06-10T11:51:47;13.20;;;4.38;;
51489;SDS011;57752;53.574;9.736;2023-06-10T11:56:56;12.43;;;4.63;;
51489;SDS011;57752;53.574;9.736;2023-06-10T12:01:57;13.95;;;4.15;;
51489;SDS011;57752;53.574;9.736;2023-06-10T12:06:58;12.57;;;4.73;;
51489;SDS011;57752;53.574;9.736;2023-06-10T12:12:02;16.30;;;4.53;;
51489;SDS011;57752;53.574;9.736;2023-06-10T12:17:06;10.00;;;4.13;;
51489;SDS011;57752;53.574;9.736;2023-06-10T12:22:07;14.27;;;4.63;;
51489;SDS011;57752;53.574;9.736;2023-06-10T12:27:11;17.25;;;5.05;;
51489;SDS011;57752;53.574;9.736;2023-06-10T12:32:12;13.27;;;5.15;;
51489;SDS011;57752;53.574;9.736;2023-06-10T12:37:15;13.60;;;5.15;;
51489;SDS011;57752;53.574;9.736;2023-06-10T12:42:15;15.30;;;5.30;;
51489;SDS011;57752;53.574;9.736;2023-06-10T12:47:15;13.77;;;5.60;;
51489;SDS011;57752;53.574;9.736;2023-06-10T12:52:16;12.97;;;4.90;;
51489;SDS011;57752;53.574;9.736;2023-06-10T12:57:17;16.13;;;5.60;;
51489;SDS011;57752;53.574;9.736;2023-06-10T13:02:18;15.40;;;5.60;;
51489;SDS011;57752;53.574;9.736;2023-06-10T13:07:19;14.10;;;5.82;;
51489;SDS011;57752;53.574;9.736;2023-06-10T13:12:20;16.60;;;5.80;;
51489;SDS011;57752;53.574;9.736;2023-06-10T13:17:21;15.95;;;6.30;;
51489;SDS011;57752;53.574;9.736;2023-06-10T13:22:21;15.47;;;5.97;;
51489;SDS011;57752;53.574;9.736;2023-06-10T13:27:23;14.60;;;5.18;;
51489;SDS011;57752;53.574;9.736;2023-06-10T13:32:24;16.05;;;5.75;;
51489;SDS011;57752;53.574;9.736;2023-06-10T13:37:24;16.20;;;6.13;;
51489;SDS011;57752;53.574;9.736;2023-06-10T13:42:25;12.03;;;5.63;;
51489;SDS011;57752;53.574;9.736;2023-06-10T13:47:26;14.07;;;5.63;;
51489;SDS011;57752;53.574;9.736;2023-06-10T13:52:26;15.20;;;5.37;;
51489;SDS011;57752;53.574;9.736;2023-06-10T13:57:27;16.50;;;6.40;;
51489;SDS011;57752;53.574;9.736;2023-06-10T14:02:27;11.48;;;5.22;;
51489;SDS011;57752;53.574;9.736;2023-06-10T14:07:27;15.13;;;5.65;;
51489;SDS011;57752;53.574;9.736;2023-06-10T14:12:28;13.50;;;5.73;;
51489;SDS011;57752;53.574;9.736;2023-06-10T14:17:28;13.13;;;4.90;;
51489;SDS011;57752;53.574;9.736;2023-06-10T14:22:28;13.88;;;5.28;;
51489;SDS011;57752;53.574;9.736;2023-06-10T14:27:29;13.43;;;5.13;;
51489;SDS011;57752;53.574;9.736;2023-06-10T14:32:29;12.18;;;5.05;;
51489;SDS011;57752;53.574;9.736;2023-06-10T14:37:29;15.33;;;5.17;;
51489;SDS011;57752;53.574;9.736;2023-06-10T14:42:29;16.07;;;4.90;;
51489;SDS011;57752;53.574;9.736;2023-06-10T14:47:31;16.00;;;4.18;;
51489;SDS011;57752;53.574;9.736;2023-06-10T14:52:32;17.30;;;4.67;;
51489;SDS011;57752;53.574;9.736;2023-06-10T14:57:32;12.33;;;4.70;;
51489;SDS011;57752;53.574;9.736;2023-06-10T15:02:32;16.02;;;4.65;;
51489;SDS011;57752;53.574;9.736;2023-06-10T15:07:33;14.63;;;4.55;;
51489;SDS011;57752;53.574;9.736;2023-06-10T15:12:33;13.45;;;4.75;;
51489;SDS011;57752;53.574;9.736;2023-06-10T15:17:34;15.27;;;4.63;;
51489;SDS011;57752;53.574;9.736;2023-06-10T15:22:34;12.50;;;4.23;;
51489;SDS011;57752;53.574;9.736;2023-06-10T15:27:35;15.75;;;5.22;;
51489;SDS011;57752;53.574;9.736;2023-06-10T15:32:35;17.95;;;4.60;;
51489;SDS011;57752;53.574;9.736;2023-06-10T15:37:35;14.93;;;4.80;;
51489;SDS011;57752;53.574;9.736;2023-06-10T15:42:36;15.27;;;5.13;;
51489;SDS011;57752;53.574;9.736;2023-06-10T15:47:36;14.17;;;4.90;;
51489;SDS011;57752;53.574;9.736;2023-06-10T15:52:36;15.67;;;5.60;;
51489;SDS011;57752;53.574;9.736;2023-06-10T15:57:37;15.18;;;5.28;;
51489;SDS011;57752;53.574;9.736;2023-06-10T16:02:37;13.07;;;4.85;;
51489;SDS011;57752;53.574;9.736;2023-06-10T16:07:37;18.10;;;5.32;;
51489;SDS011;57752;53.574;9.736;2023-06-10T16:12:38;13.50;;;4.63;;
51489;SDS011;57752;53.574;9.736;2023-06-10T16:17:38;12.93;;;4.70;;
51489;SDS011;57752;53.574;9.736;2023-06-10T16:22:38;14.80;;;4.70;;
51489;SDS011;57752;53.574;9.736;2023-06-10T16:27:39;14.75;;;4.65;;
51489;SDS011;57752;53.574;9.736;2023-06-10T16:32:39;14.45;;;4.53;;
51489;SDS011;57752;53.574;9.736;2023-06-10T16:37:40;13.50;;;4.50;;
51489;SDS011;57752;53.574;9.736;2023-06-10T16:42:40;17.47;;;5.07;;
51489;SDS011;57752;53.574;9.736;2023-06-10T16:47:41;14.37;;;4.60;;
51489;SDS011;57752;53.574;9.736;2023-06-10T16:52:41;17.20;;;4.43;;
51489;SDS011;57752;53.574;9.736;2023-06-10T16:57:42;15.23;;;4.57;;
51489;SDS011;57752;53.574;9.736;2023-06-10T17:02:42;13.10;;;4.35;;
51489;SDS011;57752;53.574;9.736;2023-06-10T17:07:42;12.05;;;4.60;;
51489;SDS011;57752;53.574;9.736;2023-06-10T17:12:42;14.83;;;5.30;;
51489;SDS011;57752;53.574;9.736;2023-06-10T17:17:43;15.03;;;4.80;;
51489;SDS011;57752;53.574;9.736;2023-06-10T17:22:43;17.38;;;4.90;;
51489;SDS011;57752;53.574;9.736;2023-06-10T17:27:43;12.73;;;4.30;;
51489;SDS011;57752;53.574;9.736;2023-06-10T17:32:44;16.10;;;4.67;;
51489;SDS011;57752;53.574;9.736;2023-06-10T17:37:44;15.02;;;4.60;;
51489;SDS011;57752;53.574;9.736;2023-06-10T17:42:44;16.40;;;4.70;;
51489;SDS011;57752;53.574;9.736;2023-06-10T17:47:45;14.38;;;4.72;;
51489;SDS011;57752;53.574;9.736;2023-06-10T17:52:46;12.25;;;4.30;;
51489;SDS011;57752;53.574;9.736;2023-06-10T17:57:46;15.35;;;4.78;;
51489;SDS011;57752;53.574;9.736;2023-06-10T18:02:46;16.10;;;5.03;;
51489;SDS011;57752;53.574;9.736;2023-06-10T18:07:46;13.90;;;4.95;;
51489;SDS011;57752;53.574;9.736;2023-06-10T18:12:47;13.57;;;4.87;;
51489;SDS011;57752;53.574;9.736;2023-06-10T18:17:47;12.60;;;4.70;;
51489;SDS011;57752;53.574;9.736;2023-06-10T18:22:47;16.67;;;4.75;;
51489;SDS011;57752;53.574;9.736;2023-06-10T18:27:48;14.60;;;4.72;;
51489;SDS011;57752;53.574;9.736;2023-06-10T18:32:48;14.85;;;5.00;;
51489;SDS011;57752;53.574;9.736;2023-06-10T18:37:48;15.17;;;5.33;;
51489;SDS011;57752;53.574;9.736;2023-06-10T18:42:48;15.02;;;4.90;;
51489;SDS011;57752;53.574;9.736;2023-06-10T18:47:49;10.75;;;4.50;;
51489;SDS011;57752;53.574;9.736;2023-06-10T18:52:49;11.95;;;4.43;;
51489;SDS011;57752;53.574;9.736;2023-06-10T18:57:49;18.17;;;4.75;;
51489;SDS011;57752;53.574;9.736;2023-06-10T19:02:50;14.70;;;4.72;;
51489;SDS011;57752;53.574;9.736;2023-06-10T19:07:50;15.20;;;4.68;;
51489;SDS011;57752;53.574;9.736;2023-06-10T19:12:50;14.23;;;4.45;;
51489;SDS011;57752;53.574;9.736;2023-06-10T19:17:51;12.43;;;4.47;;
51489;SDS011;57752;53.574;9.736;2023-06-10T19:22:51;16.70;;;5.13;;
51489;SDS011;57752;53.574;9.736;2023-06-10T19:27:51;14.80;;;4.60;;
51489;SDS011;57752;53.574;9.736;2023-06-10T19:32:51;17.23;;;5.35;;
51489;SDS011;57752;53.574;9.736;2023-06-10T19:37:52;15.75;;;4.78;;
51489;SDS011;57752;53.574;9.736;2023-06-10T19:42:52;15.10;;;4.97;;
51489;SDS011;57752;53.574;9.736;2023-06-10T19:47:52;16.25;;;4.97;;
51489;SDS011;57752;53.574;9.736;2023-06-10T19:52:53;12.70;;;4.40;;
51489;SDS011;57752;53.574;9.736;2023-06-10T19:57:53;17.60;;;5.28;;
51489;SDS011;57752;53.574;9.736;2023-06-10T20:02:55;12.60;;;5.10;;
51489;SDS011;57752;53.574;9.736;2023-06-10T20:07:55;16.33;;;4.90;;
51489;SDS011;57752;53.574;9.736;2023-06-10T20:12:55;13.88;;;4.63;;
51489;SDS011;57752;53.574;9.736;2023-06-10T20:17:55;13.43;;;4.75;;
51489;SDS011;57752;53.574;9.736;2023-06-10T20:22:56;16.73;;;4.80;;
51489;SDS011;57752;53.574;9.736;2023-06-10T20:27:56;16.17;;;4.80;;
51489;SDS011;57752;53.574;9.736;2023-06-10T20:32:57;15.65;;;5.20;;
51489;SDS011;57752;53.574;9.736;2023-06-10T20:37:57;15.80;;;5.07;;
51489;SDS011;57752;53.574;9.736;2023-06-10T20:42:57;15.52;;;4.82;;
51489;SDS011;57752;53.574;9.736;2023-06-10T20:47:57;13.82;;;5.00;;
51489;SDS011;57752;53.574;9.736;2023-06-10T20:52:58;15.63;;;4.90;;
51489;SDS011;57752;53.574;9.736;2023-06-10T20:57:58;13.57;;;5.17;;
51489;SDS011;57752;53.574;9.736;2023-06-10T21:02:58;18.30;;;5.57;;
51489;SDS011;57752;53.574;9.736;2023-06-10T21:07:59;17.45;;;5.47;;
51489;SDS011;57752;53.574;9.736;2023-06-10T21:12:59;13.80;;;5.22;;
51489;SDS011;57752;53.574;9.736;2023-06-10T21:17:59;16.17;;;5.67;;
51489;SDS011;57752;53.574;9.736;2023-06-10T21:23:00;13.82;;;4.63;;
51489;SDS011;57752;53.574;9.736;2023-06-10T21:28:00;14.43;;;4.30;;
51489;SDS011;57752;53.574;9.736;2023-06-10T21:33:00;12.93;;;4.15;;
51489;SDS011;57752;53.574;9.736;2023-06-10T21:38:01;10.77;;;4.15;;
51489;SDS011;57752;53.574;9.736;2023-06-10T21:43:01;14.27;;;4.40;;
51489;SDS011;57752;53.574;9.736;2023-06-10T21:48:01;12.73;;;4.23;;
51489;SDS011;57752;53.574;9.736;2023-06-10T21:53:01;12.82;;;4.22;;
51489;SDS011;57752;53.574;9.736;2023-06-10T21:58:02;13.18;;;4.40;;
51489;SDS011;57752;53.574;9.736;2023-06-10T22:03:02;19.48;;;4.43;;
51489;SDS011;57752;53.574;9.736;2023-06-10T22:08:02;12.02;;;4.53;;
51489;SDS011;57752;53.574;9.736;2023-06-10T22:13:03;17.55;;;4.40;;
51489;SDS011;57752;53.574;9.736;2023-06-10T22:18:07;15.07;;;5.03;;
51489;SDS011;57752;53.574;9.736;2023-06-10T22:23:08;12.35;;;3.80;;
51489;SDS011;57752;53.574;9.736;2023-06-10T22:28:08;11.13;;;3.92;;
51489;SDS011;57752;53.574;9.736;2023-06-10T22:33:08;11.82;;;3.83;;
51489;SDS011;57752;53.574;9.736;2023-06-10T22:38:09;11.25;;;3.55;;
51489;SDS011;57752;53.574;9.736;2023-06-10T22:43:09;12.25;;;3.92;;
51489;SDS011;57752;53.574;9.736;2023-06-10T22:48:10;10.87;;;3.60;;
51489;SDS011;57752;53.574;9.736;2023-06-10T22:53:10;11.57;;;3.33;;
51489;SDS011;57752;53.574;9.736;2023-06-10T22:58:10;11.52;;;4.05;;
51489;SDS011;57752;53.574;9.736;2023-06-10T23:03:10;11.38;;;3.42;;
51489;SDS011;57752;53.574;9.736;2023-06-10T23:08:11;12.30;;;3.70;;
51489;SDS011;57752;53.574;9.736;2023-06-10T23:13:11;10.13;;;3.70;;
51489;SDS011;57752;53.574;9.736;2023-06-10T23:18:11;10.33;;;3.57;;
51489;SDS011;57752;53.574;9.736;2023-06-10T23:23:16;11.10;;;3.38;;
51489;SDS011;57752;53.574;9.736;2023-06-10T23:28:16;11.27;;;3.47;;
51489;SDS011;57752;53.574;9.736;2023-06-10T23:33:17;11.48;;;3.15;;
51489;SDS011;57752;53.574;9.736;2023-06-10T23:38:18;14.38;;;3.65;;
51489;SDS011;57752;53.574;9.736;2023-06-10T23:43:18;12.77;;;3.40;;
51489;SDS011;57752;53.574;9.736;2023-06-10T23:48:18;11.95;;;3.35;;
51489;SDS011;57752;53.574;9.736;2023-06-10T23:53:18;13.38;;;3.38;;
51489;SDS011;57752;53.574;9.736;2023-06-10T23:58:19;12.50;;;3.40;;
